Terminal Aerodrome Forecast
Issued by NWS Pueblo, CO

Home | Current Version | Previous Version | Text Only | Print | Product List | Glossary On
Versions: 1 2 3 4 5 6 7 8 9 10 11 12 13 14 15 16 17 18 19 20 21 22 23 24 25
000
FTUS45 KPUB 290520
TAFPUB
TAF
KPUB 290520Z 2906/3006 30010KT P6SM FEW080 SCT200
     FM291000 01014KT P6SM FEW120 SCT200
     FM291700 03010KT P6SM FEW200
     FM292100 12010KT P6SM FEW060
     FM300200 09008KT P6SM FEW060=

USA.gov is the U.S. government's official web portal to all federal, state and local government web resources and services.